Terminal Aerodrome Forecast
Issued by NWS Sterling, VA

Current Version | Previous Version | Graphics & Text | Print | Product List | Glossary On
Versions: 1 2 3 4 5 6 7 8 9 10 11 12 13 14 15 16 17 18 19 20 21 22 23 24 25 26 27
000
FTUS41 KLWX 011800 AAA
TAFIAD
TAF AMD
KIAD 011843Z 0119/0224 23005KT P6SM VCTS BKN050CB
      TEMPO 0119/0120 VRB25KT 5SM TSRA
     FM012300 20005KT P6SM BKN090
     FM020200 21004KT P6SM FEW090 SCT250
     FM020700 00000KT P6SM SCT250
     FM021500 27006KT P6SM SCT090
     FM022000 21009KT P6SM BKN050=

USA.gov is the U.S. government's official web portal to all federal, state and local government web resources and services.